sensor_id;sensor_type;location;lat;lon;timestamp;P1;durP1;ratioP1;P2;durP2;ratioP2
64615;SDS011;51027;42.162;24.754;2023-08-24T03:30:50;19.95;;;10.98;;
64615;SDS011;51027;42.162;24.754;2023-08-24T03:33:16;21.35;;;11.15;;
64615;SDS011;51027;42.162;24.754;2023-08-24T03:35:42;19.67;;;10.75;;
64615;SDS011;51027;42.162;24.754;2023-08-24T03:38:07;19.92;;;10.98;;
64615;SDS011;51027;42.162;24.754;2023-08-24T03:40:33;21.38;;;10.63;;
64615;SDS011;51027;42.162;24.754;2023-08-24T03:43:00;19.73;;;9.73;;
64615;SDS011;51027;42.162;24.754;2023-08-24T03:45:27;21.73;;;10.38;;
64615;SDS011;51027;42.162;24.754;2023-08-24T03:47:52;20.42;;;9.98;;
64615;SDS011;51027;42.162;24.754;2023-08-24T03:50:18;20.27;;;10.50;;
64615;SDS011;51027;42.162;24.754;2023-08-24T03:52:43;19.35;;;10.43;;
64615;SDS011;51027;42.162;24.754;2023-08-24T03:55:08;19.25;;;10.40;;
64615;SDS011;51027;42.162;24.754;2023-08-24T03:57:34;18.95;;;9.98;;
64615;SDS011;51027;42.162;24.754;2023-08-24T03:59:59;19.10;;;9.75;;
64615;SDS011;51027;42.162;24.754;2023-08-24T04:02:25;18.35;;;9.82;;
64615;SDS011;51027;42.162;24.754;2023-08-24T04:04:52;21.42;;;10.50;;
64615;SDS011;51027;42.162;24.754;2023-08-24T04:07:17;19.60;;;9.95;;
64615;SDS011;51027;42.162;24.754;2023-08-24T04:09:43;19.48;;;9.95;;
64615;SDS011;51027;42.162;24.754;2023-08-24T04:12:10;20.65;;;10.00;;
64615;SDS011;51027;42.162;24.754;2023-08-24T04:14:36;20.00;;;10.27;;
64615;SDS011;51027;42.162;24.754;2023-08-24T04:17:01;17.77;;;9.38;;
64615;SDS011;51027;42.162;24.754;2023-08-24T04:19:26;19.02;;;10.13;;
64615;SDS011;51027;42.162;24.754;2023-08-24T04:21:52;19.30;;;10.10;;
64615;SDS011;51027;42.162;24.754;2023-08-24T04:24:17;19.67;;;10.75;;
64615;SDS011;51027;42.162;24.754;2023-08-24T04:26:42;18.88;;;10.15;;
64615;SDS011;51027;42.162;24.754;2023-08-24T04:29:08;23.02;;;10.38;;
64615;SDS011;51027;42.162;24.754;2023-08-24T04:31:33;20.88;;;10.68;;
64615;SDS011;51027;42.162;24.754;2023-08-24T04:33:59;20.98;;;10.35;;
64615;SDS011;51027;42.162;24.754;2023-08-24T04:36:24;21.13;;;9.95;;
64615;SDS011;51027;42.162;24.754;2023-08-24T04:38:50;19.92;;;9.93;;
64615;SDS011;51027;42.162;24.754;2023-08-24T04:41:15;18.75;;;9.55;;
64615;SDS011;51027;42.162;24.754;2023-08-24T04:43:40;21.70;;;10.18;;
64615;SDS011;51027;42.162;24.754;2023-08-24T04:46:06;17.88;;;9.27;;
64615;SDS011;51027;42.162;24.754;2023-08-24T04:48:31;20.65;;;10.10;;
64615;SDS011;51027;42.162;24.754;2023-08-24T04:50:59;19.13;;;9.60;;
64615;SDS011;51027;42.162;24.754;2023-08-24T04:53:25;18.60;;;9.48;;
64615;SDS011;51027;42.162;24.754;2023-08-24T04:55:51;22.73;;;10.50;;
64615;SDS011;51027;42.162;24.754;2023-08-24T04:58:17;23.80;;;10.20;;
64615;SDS011;51027;42.162;24.754;2023-08-24T05:00:42;17.77;;;10.05;;
64615;SDS011;51027;42.162;24.754;2023-08-24T05:03:08;21.77;;;10.10;;
64615;SDS011;51027;42.162;24.754;2023-08-24T05:05:34;19.08;;;10.15;;
64615;SDS011;51027;42.162;24.754;2023-08-24T05:08:00;21.45;;;10.48;;
64615;SDS011;51027;42.162;24.754;2023-08-24T05:10:30;20.30;;;9.80;;
64615;SDS011;51027;42.162;24.754;2023-08-24T05:12:56;17.85;;;9.52;;
64615;SDS011;51027;42.162;24.754;2023-08-24T05:15:22;21.88;;;10.68;;
64615;SDS011;51027;42.162;24.754;2023-08-24T05:17:47;21.92;;;9.88;;
64615;SDS011;51027;42.162;24.754;2023-08-24T05:20:13;21.40;;;10.65;;
64615;SDS011;51027;42.162;24.754;2023-08-24T05:22:38;20.70;;;10.00;;
64615;SDS011;51027;42.162;24.754;2023-08-24T05:25:04;21.33;;;10.13;;
64615;SDS011;51027;42.162;24.754;2023-08-24T05:27:30;23.25;;;10.82;;
64615;SDS011;51027;42.162;24.754;2023-08-24T05:29:56;24.95;;;10.43;;
64615;SDS011;51027;42.162;24.754;2023-08-24T05:32:21;21.35;;;10.65;;
64615;SDS011;51027;42.162;24.754;2023-08-24T05:34:47;21.38;;;9.93;;
64615;SDS011;51027;42.162;24.754;2023-08-24T05:37:12;20.08;;;9.85;;
64615;SDS011;51027;42.162;24.754;2023-08-24T05:39:38;20.40;;;9.68;;
64615;SDS011;51027;42.162;24.754;2023-08-24T05:42:04;21.58;;;10.50;;
64615;SDS011;51027;42.162;24.754;2023-08-24T05:44:30;18.23;;;9.38;;
64615;SDS011;51027;42.162;24.754;2023-08-24T05:46:55;21.30;;;10.75;;
64615;SDS011;51027;42.162;24.754;2023-08-24T05:49:21;23.15;;;11.02;;
64615;SDS011;51027;42.162;24.754;2023-08-24T05:51:46;21.85;;;10.60;;
64615;SDS011;51027;42.162;24.754;2023-08-24T05:54:11;18.63;;;9.95;;
64615;SDS011;51027;42.162;24.754;2023-08-24T05:56:38;20.58;;;10.40;;
64615;SDS011;51027;42.162;24.754;2023-08-24T05:59:04;19.08;;;9.73;;
64615;SDS011;51027;42.162;24.754;2023-08-24T06:01:29;20.55;;;9.98;;
64615;SDS011;51027;42.162;24.754;2023-08-24T06:03:54;19.50;;;9.98;;
64615;SDS011;51027;42.162;24.754;2023-08-24T06:06:20;21.08;;;10.70;;
64615;SDS011;51027;42.162;24.754;2023-08-24T06:08:48;20.10;;;9.60;;
64615;SDS011;51027;42.162;24.754;2023-08-24T06:11:14;21.50;;;10.38;;
64615;SDS011;51027;42.162;24.754;2023-08-24T06:13:39;18.38;;;10.75;;
64615;SDS011;51027;42.162;24.754;2023-08-24T06:16:04;21.15;;;10.50;;
64615;SDS011;51027;42.162;24.754;2023-08-24T06:18:30;23.80;;;11.90;;
64615;SDS011;51027;42.162;24.754;2023-08-24T06:20:55;19.88;;;10.15;;
64615;SDS011;51027;42.162;24.754;2023-08-24T06:23:21;19.08;;;9.93;;
64615;SDS011;51027;42.162;24.754;2023-08-24T06:25:46;21.02;;;10.10;;
64615;SDS011;51027;42.162;24.754;2023-08-24T06:28:12;23.30;;;10.90;;
64615;SDS011;51027;42.162;24.754;2023-08-24T06:30:39;21.10;;;9.82;;
64615;SDS011;51027;42.162;24.754;2023-08-24T06:33:06;20.23;;;10.48;;
64615;SDS011;51027;42.162;24.754;2023-08-24T06:35:35;20.60;;;9.88;;
64615;SDS011;51027;42.162;24.754;2023-08-24T06:38:01;21.97;;;10.30;;
64615;SDS011;51027;42.162;24.754;2023-08-24T06:40:28;21.45;;;10.40;;
64615;SDS011;51027;42.162;24.754;2023-08-24T06:42:53;19.08;;;10.18;;
64615;SDS011;51027;42.162;24.754;2023-08-24T06:45:19;22.25;;;10.82;;
64615;SDS011;51027;42.162;24.754;2023-08-24T06:47:44;23.95;;;10.85;;
64615;SDS011;51027;42.162;24.754;2023-08-24T06:50:10;22.30;;;10.13;;
64615;SDS011;51027;42.162;24.754;2023-08-24T06:52:35;19.70;;;10.00;;
64615;SDS011;51027;42.162;24.754;2023-08-24T06:55:01;21.67;;;10.57;;
64615;SDS011;51027;42.162;24.754;2023-08-24T06:57:27;22.13;;;10.00;;
64615;SDS011;51027;42.162;24.754;2023-08-24T06:59:52;22.33;;;10.45;;
64615;SDS011;51027;42.162;24.754;2023-08-24T07:02:18;22.70;;;10.60;;
64615;SDS011;51027;42.162;24.754;2023-08-24T07:04:43;22.60;;;11.10;;
64615;SDS011;51027;42.162;24.754;2023-08-24T07:07:09;24.45;;;11.15;;
64615;SDS011;51027;42.162;24.754;2023-08-24T07:09:35;25.58;;;12.30;;
64615;SDS011;51027;42.162;24.754;2023-08-24T07:12:03;27.88;;;12.18;;
64615;SDS011;51027;42.162;24.754;2023-08-24T07:14:32;25.50;;;10.88;;
64615;SDS011;51027;42.162;24.754;2023-08-24T07:16:57;21.88;;;11.20;;
64615;SDS011;51027;42.162;24.754;2023-08-24T07:19:23;21.55;;;11.70;;
64615;SDS011;51027;42.162;24.754;2023-08-24T07:21:48;23.58;;;11.05;;
64615;SDS011;51027;42.162;24.754;2023-08-24T07:24:14;20.75;;;10.85;;
64615;SDS011;51027;42.162;24.754;2023-08-24T07:26:40;18.52;;;9.30;;
64615;SDS011;51027;42.162;24.754;2023-08-24T07:29:06;18.92;;;8.57;;
64615;SDS011;51027;42.162;24.754;2023-08-24T07:31:32;18.05;;;8.40;;
64615;SDS011;51027;42.162;24.754;2023-08-24T07:33:57;18.65;;;9.02;;
64615;SDS011;51027;42.162;24.754;2023-08-24T07:36:23;15.80;;;6.38;;
64615;SDS011;51027;42.162;24.754;2023-08-24T07:38:49;17.92;;;7.40;;
64615;SDS011;51027;42.162;24.754;2023-08-24T07:41:14;17.13;;;7.28;;
64615;SDS011;51027;42.162;24.754;2023-08-24T07:43:42;16.25;;;7.70;;
64615;SDS011;51027;42.162;24.754;2023-08-24T07:46:08;18.83;;;7.50;;
64615;SDS011;51027;42.162;24.754;2023-08-24T07:48:33;17.92;;;7.82;;
64615;SDS011;51027;42.162;24.754;2023-08-24T07:50:59;18.35;;;7.78;;
64615;SDS011;51027;42.162;24.754;2023-08-24T07:53:24;17.75;;;7.93;;
64615;SDS011;51027;42.162;24.754;2023-08-24T07:55:50;20.60;;;8.40;;
64615;SDS011;51027;42.162;24.754;2023-08-24T07:58:15;17.00;;;8.43;;
64615;SDS011;51027;42.162;24.754;2023-08-24T08:00:41;17.60;;;8.55;;
64615;SDS011;51027;42.162;24.754;2023-08-24T08:03:06;18.48;;;8.02;;
64615;SDS011;51027;42.162;24.754;2023-08-24T08:05:32;19.75;;;9.13;;
64615;SDS011;51027;42.162;24.754;2023-08-24T08:07:57;17.15;;;8.88;;
64615;SDS011;51027;42.162;24.754;2023-08-24T08:10:23;18.38;;;9.48;;
64615;SDS011;51027;42.162;24.754;2023-08-24T08:12:48;20.92;;;10.10;;
64615;SDS011;51027;42.162;24.754;2023-08-24T08:15:13;19.20;;;9.60;;
64615;SDS011;51027;42.162;24.754;2023-08-24T08:17:39;20.90;;;9.45;;
64615;SDS011;51027;42.162;24.754;2023-08-24T08:20:04;17.42;;;9.00;;
64615;SDS011;51027;42.162;24.754;2023-08-24T08:22:31;17.80;;;8.93;;
64615;SDS011;51027;42.162;24.754;2023-08-24T08:25:01;19.13;;;9.15;;
64615;SDS011;51027;42.162;24.754;2023-08-24T08:27:26;16.45;;;8.40;;
64615;SDS011;51027;42.162;24.754;2023-08-24T08:29:52;18.92;;;8.63;;
64615;SDS011;51027;42.162;24.754;2023-08-24T08:32:17;18.23;;;8.38;;
64615;SDS011;51027;42.162;24.754;2023-08-24T08:34:43;18.38;;;8.75;;
64615;SDS011;51027;42.162;24.754;2023-08-24T08:37:08;15.63;;;8.25;;
64615;SDS011;51027;42.162;24.754;2023-08-24T08:39:34;16.73;;;7.97;;
64615;SDS011;51027;42.162;24.754;2023-08-24T08:41:59;16.80;;;8.25;;
64615;SDS011;51027;42.162;24.754;2023-08-24T08:44:26;17.05;;;8.00;;
64615;SDS011;51027;42.162;24.754;2023-08-24T08:46:56;17.60;;;8.20;;
64615;SDS011;51027;42.162;24.754;2023-08-24T08:49:22;19.13;;;9.27;;
64615;SDS011;51027;42.162;24.754;2023-08-24T08:51:48;19.17;;;9.35;;
64615;SDS011;51027;42.162;24.754;2023-08-24T08:54:14;19.60;;;8.73;;
64615;SDS011;51027;42.162;24.754;2023-08-24T08:56:39;18.58;;;9.45;;
64615;SDS011;51027;42.162;24.754;2023-08-24T08:59:07;16.95;;;8.75;;
64615;SDS011;51027;42.162;24.754;2023-08-24T09:01:33;17.48;;;8.98;;
64615;SDS011;51027;42.162;24.754;2023-08-24T09:03:59;20.25;;;9.88;;
64615;SDS011;51027;42.162;24.754;2023-08-24T09:06:25;20.10;;;10.38;;
64615;SDS011;51027;42.162;24.754;2023-08-24T09:08:51;20.02;;;9.43;;
64615;SDS011;51027;42.162;24.754;2023-08-24T09:11:17;20.35;;;9.70;;
64615;SDS011;51027;42.162;24.754;2023-08-24T09:13:43;18.55;;;9.10;;
64615;SDS011;51027;42.162;24.754;2023-08-24T09:16:11;17.83;;;8.90;;
64615;SDS011;51027;42.162;24.754;2023-08-24T09:18:43;17.50;;;9.43;;
64615;SDS011;51027;42.162;24.754;2023-08-24T09:21:11;17.13;;;9.27;;
64615;SDS011;51027;42.162;24.754;2023-08-24T09:23:38;17.75;;;8.80;;
64615;SDS011;51027;42.162;24.754;2023-08-24T09:26:10;17.45;;;8.88;;
64615;SDS011;51027;42.162;24.754;2023-08-24T09:28:35;19.52;;;8.60;;
64615;SDS011;51027;42.162;24.754;2023-08-24T09:31:04;19.53;;;10.47;;
64615;SDS011;51027;42.162;24.754;2023-08-24T09:33:29;19.02;;;9.02;;
64615;SDS011;51027;42.162;24.754;2023-08-24T09:35:55;21.67;;;9.55;;
64615;SDS011;51027;42.162;24.754;2023-08-24T09:38:26;17.90;;;9.02;;
64615;SDS011;51027;42.162;24.754;2023-08-24T09:40:53;19.52;;;9.57;;
64615;SDS011;51027;42.162;24.754;2023-08-24T09:43:20;20.20;;;9.60;;
64615;SDS011;51027;42.162;24.754;2023-08-24T09:45:50;19.48;;;9.80;;
64615;SDS011;51027;42.162;24.754;2023-08-24T09:48:17;19.95;;;10.05;;
64615;SDS011;51027;42.162;24.754;2023-08-24T09:50:44;19.13;;;9.68;;
64615;SDS011;51027;42.162;24.754;2023-08-24T09:53:11;19.52;;;10.25;;
64615;SDS011;51027;42.162;24.754;2023-08-24T09:58:27;19.05;;;9.77;;
64615;SDS011;51027;42.162;24.754;2023-08-24T10:00:53;20.35;;;10.15;;
64615;SDS011;51027;42.162;24.754;2023-08-24T10:03:20;17.90;;;9.77;;
64615;SDS011;51027;42.162;24.754;2023-08-24T10:05:50;18.98;;;10.60;;
64615;SDS011;51027;42.162;24.754;2023-08-24T10:08:20;18.65;;;10.85;;
64615;SDS011;51027;42.162;24.754;2023-08-24T10:10:47;18.58;;;10.38;;
64615;SDS011;51027;42.162;24.754;2023-08-24T10:13:18;19.10;;;10.98;;
64615;SDS011;51027;42.162;24.754;2023-08-24T10:15:51;21.60;;;10.55;;
64615;SDS011;51027;42.162;24.754;2023-08-24T10:18:18;20.08;;;10.50;;
64615;SDS011;51027;42.162;24.754;2023-08-24T10:20:45;18.23;;;10.98;;
64615;SDS011;51027;42.162;24.754;2023-08-24T10:23:12;22.38;;;10.98;;
64615;SDS011;51027;42.162;24.754;2023-08-24T10:25:40;20.52;;;11.02;;
64615;SDS011;51027;42.162;24.754;2023-08-24T10:28:07;20.27;;;11.05;;
64615;SDS011;51027;42.162;24.754;2023-08-24T10:30:34;20.20;;;11.10;;
64615;SDS011;51027;42.162;24.754;2023-08-24T10:33:01;18.33;;;9.73;;
64615;SDS011;51027;42.162;24.754;2023-08-24T10:35:27;18.30;;;9.55;;
64615;SDS011;51027;42.162;24.754;2023-08-24T10:37:53;18.42;;;10.05;;
64615;SDS011;51027;42.162;24.754;2023-08-24T10:40:36;18.75;;;9.25;;
64615;SDS011;51027;42.162;24.754;2023-08-24T10:43:08;17.20;;;9.02;;
64615;SDS011;51027;42.162;24.754;2023-08-24T10:48:26;17.13;;;8.68;;
64615;SDS011;51027;42.162;24.754;2023-08-24T10:53:42;19.05;;;9.43;;
64615;SDS011;51027;42.162;24.754;2023-08-24T10:56:10;19.15;;;8.95;;
64615;SDS011;51027;42.162;24.754;2023-08-24T10:58:39;17.70;;;8.45;;
64615;SDS011;51027;42.162;24.754;2023-08-24T11:01:05;18.73;;;9.27;;
64615;SDS011;51027;42.162;24.754;2023-08-24T11:03:33;17.23;;;8.63;;
64615;SDS011;51027;42.162;24.754;2023-08-24T11:05:59;18.48;;;9.13;;
64615;SDS011;51027;42.162;24.754;2023-08-24T11:11:22;16.73;;;9.15;;
64615;SDS011;51027;42.162;24.754;2023-08-24T11:16:43;16.05;;;7.65;;
64615;SDS011;51027;42.162;24.754;2023-08-24T11:19:12;15.27;;;7.72;;
64615;SDS011;51027;42.162;24.754;2023-08-24T11:21:39;16.95;;;7.75;;
64615;SDS011;51027;42.162;24.754;2023-08-24T11:24:05;15.93;;;7.82;;
64615;SDS011;51027;42.162;24.754;2023-08-24T11:26:31;15.73;;;8.30;;
64615;SDS011;51027;42.162;24.754;2023-08-24T11:28:57;16.65;;;8.05;;
64615;SDS011;51027;42.162;24.754;2023-08-24T11:31:23;16.13;;;8.13;;
64615;SDS011;51027;42.162;24.754;2023-08-24T11:33:53;17.67;;;8.48;;
64615;SDS011;51027;42.162;24.754;2023-08-24T11:36:20;16.80;;;8.55;;
64615;SDS011;51027;42.162;24.754;2023-08-24T11:38:46;16.98;;;8.52;;
64615;SDS011;51027;42.162;24.754;2023-08-24T11:43:45;16.35;;;8.15;;
64615;SDS011;51027;42.162;24.754;2023-08-24T11:46:12;16.35;;;8.25;;
64615;SDS011;51027;42.162;24.754;2023-08-24T11:48:40;16.27;;;8.32;;
64615;SDS011;51027;42.162;24.754;2023-08-24T11:51:09;17.55;;;7.97;;
64615;SDS011;51027;42.162;24.754;2023-08-24T11:53:41;18.35;;;8.93;;
64615;SDS011;51027;42.162;24.754;2023-08-24T11:56:14;16.83;;;8.45;;
64615;SDS011;51027;42.162;24.754;2023-08-24T11:58:42;16.20;;;8.30;;
64615;SDS011;51027;42.162;24.754;2023-08-24T12:01:09;16.45;;;7.55;;
64615;SDS011;51027;42.162;24.754;2023-08-24T12:03:36;17.30;;;8.45;;
64615;SDS011;51027;42.162;24.754;2023-08-24T12:06:06;17.60;;;8.07;;
64615;SDS011;51027;42.162;24.754;2023-08-24T12:08:39;15.98;;;8.52;;
64615;SDS011;51027;42.162;24.754;2023-08-24T12:11:20;16.42;;;8.63;;
64615;SDS011;51027;42.162;24.754;2023-08-24T12:13:50;17.70;;;8.43;;
64615;SDS011;51027;42.162;24.754;2023-08-24T12:16:17;19.33;;;8.20;;
64615;SDS011;51027;42.162;24.754;2023-08-24T12:18:53;15.73;;;8.00;;
64615;SDS011;51027;42.162;24.754;2023-08-24T12:21:21;21.95;;;8.48;;
64615;SDS011;51027;42.162;24.754;2023-08-24T12:23:57;16.90;;;8.45;;
64615;SDS011;51027;42.162;24.754;2023-08-24T12:26:34;17.85;;;8.77;;
64615;SDS011;51027;42.162;24.754;2023-08-24T12:29:04;16.38;;;8.57;;
64615;SDS011;51027;42.162;24.754;2023-08-24T12:31:32;16.35;;;8.38;;
64615;SDS011;51027;42.162;24.754;2023-08-24T12:34:02;16.35;;;8.65;;
64615;SDS011;51027;42.162;24.754;2023-08-24T12:36:35;17.98;;;8.63;;
64615;SDS011;51027;42.162;24.754;2023-08-24T12:39:02;17.17;;;8.27;;
64615;SDS011;51027;42.162;24.754;2023-08-24T12:41:32;16.65;;;8.32;;
64615;SDS011;51027;42.162;24.754;2023-08-24T12:43:57;17.77;;;8.88;;
64615;SDS011;51027;42.162;24.754;2023-08-24T12:46:23;16.38;;;8.40;;
64615;SDS011;51027;42.162;24.754;2023-08-24T12:48:49;15.57;;;8.23;;
64615;SDS011;51027;42.162;24.754;2023-08-24T12:51:15;16.17;;;8.02;;
64615;SDS011;51027;42.162;24.754;2023-08-24T12:53:41;16.13;;;8.35;;
64615;SDS011;51027;42.162;24.754;2023-08-24T12:56:07;16.60;;;8.43;;
64615;SDS011;51027;42.162;24.754;2023-08-24T12:58:32;15.90;;;8.30;;
64615;SDS011;51027;42.162;24.754;2023-08-24T13:00:58;25.48;;;8.88;;
64615;SDS011;51027;42.162;24.754;2023-08-24T13:03:24;39.15;;;10.48;;
64615;SDS011;51027;42.162;24.754;2023-08-24T13:05:49;16.42;;;7.78;;
64615;SDS011;51027;42.162;24.754;2023-08-24T13:08:15;17.80;;;8.50;;
64615;SDS011;51027;42.162;24.754;2023-08-24T13:10:40;17.40;;;8.57;;
64615;SDS011;51027;42.162;24.754;2023-08-24T13:13:06;18.73;;;8.95;;
64615;SDS011;51027;42.162;24.754;2023-08-24T13:15:32;15.80;;;7.82;;
64615;SDS011;51027;42.162;24.754;2023-08-24T13:17:57;17.27;;;8.57;;
64615;SDS011;51027;42.162;24.754;2023-08-24T13:20:23;16.10;;;8.98;;
64615;SDS011;51027;42.162;24.754;2023-08-24T13:22:50;18.55;;;8.38;;
64615;SDS011;51027;42.162;24.754;2023-08-24T13:25:16;15.68;;;8.05;;
64615;SDS011;51027;42.162;24.754;2023-08-24T13:27:42;15.20;;;8.23;;
64615;SDS011;51027;42.162;24.754;2023-08-24T13:30:07;16.13;;;7.75;;
64615;SDS011;51027;42.162;24.754;2023-08-24T13:32:33;17.77;;;8.30;;
64615;SDS011;51027;42.162;24.754;2023-08-24T13:34:59;16.45;;;8.23;;
64615;SDS011;51027;42.162;24.754;2023-08-24T13:37:24;16.92;;;8.88;;
64615;SDS011;51027;42.162;24.754;2023-08-24T13:39:50;17.52;;;8.85;;
64615;SDS011;51027;42.162;24.754;2023-08-24T13:42:16;19.77;;;9.13;;
64615;SDS011;51027;42.162;24.754;2023-08-24T13:44:42;18.08;;;9.10;;
64615;SDS011;51027;42.162;24.754;2023-08-24T13:47:08;17.10;;;9.10;;
64615;SDS011;51027;42.162;24.754;2023-08-24T13:49:33;15.75;;;8.55;;
64615;SDS011;51027;42.162;24.754;2023-08-24T13:51:59;18.10;;;9.13;;
64615;SDS011;51027;42.162;24.754;2023-08-24T13:54:24;17.63;;;8.63;;
64615;SDS011;51027;42.162;24.754;2023-08-24T13:56:51;16.92;;;9.27;;
64615;SDS011;51027;42.162;24.754;2023-08-24T13:59:18;17.85;;;9.55;;
64615;SDS011;51027;42.162;24.754;2023-08-24T14:01:44;18.23;;;9.10;;
64615;SDS011;51027;42.162;24.754;2023-08-24T14:04:10;16.48;;;9.05;;
64615;SDS011;51027;42.162;24.754;2023-08-24T14:06:35;18.52;;;9.85;;
64615;SDS011;51027;42.162;24.754;2023-08-24T14:09:02;22.23;;;12.75;;
64615;SDS011;51027;42.162;24.754;2023-08-24T14:11:28;27.80;;;15.40;;
64615;SDS011;51027;42.162;24.754;2023-08-24T14:13:54;35.90;;;18.20;;
64615;SDS011;51027;42.162;24.754;2023-08-24T14:16:19;29.38;;;14.93;;
64615;SDS011;51027;42.162;24.754;2023-08-24T14:18:45;23.40;;;12.30;;
64615;SDS011;51027;42.162;24.754;2023-08-24T14:21:11;23.27;;;10.82;;
64615;SDS011;51027;42.162;24.754;2023-08-24T14:23:36;18.30;;;9.90;;
64615;SDS011;51027;42.162;24.754;2023-08-24T14:26:02;18.10;;;9.80;;
64615;SDS011;51027;42.162;24.754;2023-08-24T14:28:46;17.60;;;9.98;;
64615;SDS011;51027;42.162;24.754;2023-08-24T14:31:14;19.50;;;10.40;;
64615;SDS011;51027;42.162;24.754;2023-08-24T14:33:40;18.48;;;9.70;;
64615;SDS011;51027;42.162;24.754;2023-08-24T14:36:06;20.15;;;9.48;;
64615;SDS011;51027;42.162;24.754;2023-08-24T14:38:31;17.55;;;9.30;;
64615;SDS011;51027;42.162;24.754;2023-08-24T14:40:57;17.27;;;9.90;;
64615;SDS011;51027;42.162;24.754;2023-08-24T14:43:22;18.33;;;9.57;;
64615;SDS011;51027;42.162;24.754;2023-08-24T14:45:48;19.65;;;9.52;;
64615;SDS011;51027;42.162;24.754;2023-08-24T14:48:14;19.42;;;10.05;;
64615;SDS011;51027;42.162;24.754;2023-08-24T14:50:39;21.77;;;9.57;;
64615;SDS011;51027;42.162;24.754;2023-08-24T14:53:05;17.88;;;9.30;;
64615;SDS011;51027;42.162;24.754;2023-08-24T14:55:31;17.38;;;9.27;;
64615;SDS011;51027;42.162;24.754;2023-08-24T14:57:56;19.75;;;9.85;;
64615;SDS011;51027;42.162;24.754;2023-08-24T15:00:23;18.50;;;10.35;;
64615;SDS011;51027;42.162;24.754;2023-08-24T15:02:49;20.60;;;10.48;;
64615;SDS011;51027;42.162;24.754;2023-08-24T15:05:14;19.98;;;11.32;;
64615;SDS011;51027;42.162;24.754;2023-08-24T15:07:40;19.70;;;11.40;;
64615;SDS011;51027;42.162;24.754;2023-08-24T15:10:05;22.42;;;10.93;;
64615;SDS011;51027;42.162;24.754;2023-08-24T15:12:31;20.75;;;11.10;;
64615;SDS011;51027;42.162;24.754;2023-08-24T15:15:00;19.33;;;9.90;;
64615;SDS011;51027;42.162;24.754;2023-08-24T15:17:30;21.30;;;10.13;;
64615;SDS011;51027;42.162;24.754;2023-08-24T15:19:56;18.83;;;10.65;;
64615;SDS011;51027;42.162;24.754;2023-08-24T15:22:22;19.95;;;10.85;;
64615;SDS011;51027;42.162;24.754;2023-08-24T15:24:48;18.48;;;9.85;;
64615;SDS011;51027;42.162;24.754;2023-08-24T15:27:13;19.85;;;10.00;;
64615;SDS011;51027;42.162;24.754;2023-08-24T15:29:39;19.27;;;10.57;;
64615;SDS011;51027;42.162;24.754;2023-08-24T15:32:04;18.05;;;9.40;;
64615;SDS011;51027;42.162;24.754;2023-08-24T15:34:30;18.85;;;10.63;;
64615;SDS011;51027;42.162;24.754;2023-08-24T15:36:55;25.50;;;10.52;;
64615;SDS011;51027;42.162;24.754;2023-08-24T15:39:21;19.35;;;10.80;;
64615;SDS011;51027;42.162;24.754;2023-08-24T15:41:46;17.75;;;10.02;;
64615;SDS011;51027;42.162;24.754;2023-08-24T15:44:11;19.95;;;10.38;;
64615;SDS011;51027;42.162;24.754;2023-08-24T15:46:37;17.65;;;9.68;;
64615;SDS011;51027;42.162;24.754;2023-08-24T15:49:03;20.02;;;11.63;;
64615;SDS011;51027;42.162;24.754;2023-08-24T15:51:28;18.95;;;10.80;;
64615;SDS011;51027;42.162;24.754;2023-08-24T15:53:54;19.58;;;10.43;;
64615;SDS011;51027;42.162;24.754;2023-08-24T15:56:19;17.80;;;10.10;;
64615;SDS011;51027;42.162;24.754;2023-08-24T15:58:45;20.15;;;10.95;;
64615;SDS011;51027;42.162;24.754;2023-08-24T16:01:11;20.88;;;10.60;;
64615;SDS011;51027;42.162;24.754;2023-08-24T16:03:36;19.42;;;10.40;;
64615;SDS011;51027;42.162;24.754;2023-08-24T16:06:08;18.33;;;10.77;;
64615;SDS011;51027;42.162;24.754;2023-08-24T16:08:34;19.08;;;10.02;;
64615;SDS011;51027;42.162;24.754;2023-08-24T16:10:59;18.70;;;10.77;;
64615;SDS011;51027;42.162;24.754;2023-08-24T16:13:25;18.55;;;10.82;;
64615;SDS011;51027;42.162;24.754;2023-08-24T16:15:51;18.98;;;10.30;;
64615;SDS011;51027;42.162;24.754;2023-08-24T16:18:21;19.15;;;10.50;;
64615;SDS011;51027;42.162;24.754;2023-08-24T16:20:49;18.55;;;10.23;;
64615;SDS011;51027;42.162;24.754;2023-08-24T16:23:15;18.02;;;9.88;;
64615;SDS011;51027;42.162;24.754;2023-08-24T16:25:40;19.42;;;10.32;;
64615;SDS011;51027;42.162;24.754;2023-08-24T16:28:06;18.83;;;11.07;;
64615;SDS011;51027;42.162;24.754;2023-08-24T16:30:31;19.10;;;10.73;;
64615;SDS011;51027;42.162;24.754;2023-08-24T16:32:56;18.13;;;10.35;;
64615;SDS011;51027;42.162;24.754;2023-08-24T16:35:22;18.17;;;10.48;;
64615;SDS011;51027;42.162;24.754;2023-08-24T16:37:47;18.17;;;10.82;;
64615;SDS011;51027;42.162;24.754;2023-08-24T16:40:13;20.00;;;11.20;;
64615;SDS011;51027;42.162;24.754;2023-08-24T16:42:38;22.17;;;12.35;;
64615;SDS011;51027;42.162;24.754;2023-08-24T16:45:03;20.08;;;11.32;;
64615;SDS011;51027;42.162;24.754;2023-08-24T16:47:29;18.77;;;10.88;;
64615;SDS011;51027;42.162;24.754;2023-08-24T16:49:54;20.67;;;10.60;;
64615;SDS011;51027;42.162;24.754;2023-08-24T16:52:20;20.70;;;11.52;;
64615;SDS011;51027;42.162;24.754;2023-08-24T16:54:45;21.48;;;11.70;;
64615;SDS011;51027;42.162;24.754;2023-08-24T16:57:12;23.65;;;12.13;;
64615;SDS011;51027;42.162;24.754;2023-08-24T16:59:37;18.98;;;11.10;;
64615;SDS011;51027;42.162;24.754;2023-08-24T17:02:03;22.38;;;11.70;;
64615;SDS011;51027;42.162;24.754;2023-08-24T17:04:29;19.70;;;11.57;;
64615;SDS011;51027;42.162;24.754;2023-08-24T17:06:54;24.88;;;14.98;;
64615;SDS011;51027;42.162;24.754;2023-08-24T17:09:20;19.55;;;12.18;;
64615;SDS011;51027;42.162;24.754;2023-08-24T17:11:45;21.02;;;11.90;;
64615;SDS011;51027;42.162;24.754;2023-08-24T17:14:11;20.33;;;10.88;;
64615;SDS011;51027;42.162;24.754;2023-08-24T17:16:36;19.60;;;10.10;;
64615;SDS011;51027;42.162;24.754;2023-08-24T17:19:02;19.35;;;11.27;;
64615;SDS011;51027;42.162;24.754;2023-08-24T17:21:27;20.38;;;11.90;;
64615;SDS011;51027;42.162;24.754;2023-08-24T17:23:53;21.92;;;12.60;;
64615;SDS011;51027;42.162;24.754;2023-08-24T17:26:18;22.85;;;12.90;;
64615;SDS011;51027;42.162;24.754;2023-08-24T17:28:43;21.23;;;13.18;;
64615;SDS011;51027;42.162;24.754;2023-08-24T17:31:09;21.92;;;12.55;;
64615;SDS011;51027;42.162;24.754;2023-08-24T17:33:37;22.27;;;12.95;;
64615;SDS011;51027;42.162;24.754;2023-08-24T17:36:03;20.45;;;12.75;;
64615;SDS011;51027;42.162;24.754;2023-08-24T17:38:28;20.85;;;12.27;;
64615;SDS011;51027;42.162;24.754;2023-08-24T17:41:04;23.02;;;13.35;;
64615;SDS011;51027;42.162;24.754;2023-08-24T17:43:31;26.27;;;14.18;;
64615;SDS011;51027;42.162;24.754;2023-08-24T17:46:02;24.65;;;14.35;;
64615;SDS011;51027;42.162;24.754;2023-08-24T17:48:29;24.73;;;13.63;;
64615;SDS011;51027;42.162;24.754;2023-08-24T17:50:59;21.60;;;12.35;;
64615;SDS011;51027;42.162;24.754;2023-08-24T17:53:26;21.33;;;12.70;;
64615;SDS011;51027;42.162;24.754;2023-08-24T17:55:55;21.50;;;12.30;;
64615;SDS011;51027;42.162;24.754;2023-08-24T17:58:22;21.20;;;11.63;;